Latest Weather Observations for Casey*

IDT60801

Issued at 6:51 pm EST Friday 20 July 2018 (issued every 10 minutes, with the page automatically refreshed every 10 minutes)

About weather observations | Map of weather stations | Latest weather observations for ANT | Other Formats
Station Details ID: 300017 Name: CASEY Lat: -66.28 Lon: 110.52 Height: 40.0 m
Data from the previous 72 hours. | See also: Recent months at Casey*
Date/Time
EST
Temp
°C
App
Temp
°C
Dew
Point
°C
Rel
Hum
%
Delta-T
°C
Wind Press
QNH
hPa
Press
MSL
hPa
Rain since
9am
mm
Dir  Spd
km/h
Gust
km/h
Spd
kts
Gust
kts
20/06:30pm -7.0 -29.0 -9.2 84 - E 100 113 54 61 972.9 - -
20/06:00pm -6.9 -28.5 -9.0 85 - E 98 109 53 59 973.3 - -
20/05:30pm -7.3 -28.5 -9.4 85 - E 96 109 52 59 973.5 - -
20/05:00pm -7.4 -29.0 -9.5 85 - E 98 113 53 61 973.1 - -
20/04:30pm -7.5 -29.1 -9.4 86 - E 98 109 53 59 973.4 - -
20/04:03pm -7.5 -28.7 -9.4 86 - E 96 109 52 59 973.6 - -
20/04:00pm -7.6 -28.7 -9.5 86 - E 95 109 51 59 973.7 974.2 -
20/03:40pm -7.5 -28.2 -9.4 86 - E 93 111 50 60 974.0 - -
20/03:30pm -7.4 -26.9 -9.3 86 - E 87 96 47 52 974.6 - -
20/03:00pm -7.3 -26.5 -9.4 85 - E 85 96 46 52 975.3 - -
20/02:30pm -7.5 -26.7 -9.6 85 - E 85 98 46 53 975.6 - -
20/02:00pm -7.8 -26.6 -9.9 85 - E 83 96 45 52 975.9 - -
20/01:30pm -7.9 -26.7 -10.1 84 - E 83 98 45 53 975.9 - -
20/01:03pm -7.9 -26.7 -10.0 85 - E 83 102 45 55 975.7 - -
20/01:00pm -7.9 -26.7 -10.1 84 - E 83 98 45 53 975.9 976.4 -
20/12:30pm -8.1 -26.9 -10.2 85 - E 83 106 45 57 975.9 - -
20/12:23pm -8.2 -27.4 -10.3 85 - E 85 106 46 57 975.7 - -
20/12:00pm -7.9 -27.1 -9.8 86 - E 85 102 46 55 976.4 - -
20/11:40am -8.2 -26.8 -10.0 87 - E 82 100 44 54 976.4 - -
20/11:30am -8.1 -26.7 -10.0 86 - E 82 98 44 53 976.0 - -
20/11:00am -7.7 -24.8 -9.9 84 - E 74 95 40 51 976.5 - -
20/10:30am -8.2 -25.7 -10.1 86 - E 76 95 41 51 976.5 - -
20/10:17am -7.3 -25.1 -9.1 87 - E 78 96 42 52 976.5 - -
20/10:00am -8.2 -26.1 -10.1 86 - E 78 95 42 51 976.6 977.1 -
20/09:56am -8.0 -25.5 -9.9 86 - E 76 95 41 51 976.8 - -
20/09:30am -8.3 -25.1 -10.5 84 - E 72 85 39 46 977.0 - -
20/09:00am -8.3 -24.7 -10.5 84 - E 70 80 38 43 977.0 - -
20/08:30am -8.5 -24.9 -10.6 85 - E 70 85 38 46 977.1 - -
20/08:11am -8.3 -25.8 -10.4 85 - E 76 98 41 53 977.2 - -
20/08:00am -8.7 -26.3 -10.8 85 - E 76 87 41 47 977.0 - -
20/07:30am -8.3 -24.5 -10.4 85 - E 69 78 37 42 977.3 - -
20/07:00am -8.7 -25.5 -10.8 85 - E 72 85 39 46 977.5 978.0 -
20/06:30am -8.8 -25.6 -10.9 85 - E 72 82 39 44 977.6 - -
20/06:00am -8.7 -25.5 -10.8 85 - E 72 85 39 46 977.9 - -
20/05:30am -8.5 -24.9 -10.6 85 - E 70 82 38 44 978.2 - -
20/05:00am -8.4 -24.8 -10.5 85 - E 70 82 38 44 978.5 - -
20/04:30am -7.8 -23.6 -10.2 83 - E 67 78 36 42 978.9 - -
20/04:00am -7.9 -24.1 -10.4 82 - E 69 78 37 42 978.9 979.5 -
20/03:30am -7.5 -22.2 -10.5 79 - E 61 72 33 39 979.0 - -
20/03:18am -7.4 -22.1 -10.6 78 - E 61 69 33 37 979.4 - -
20/03:01am -7.4 -18.7 -10.7 77 - E 43 61 23 33 980.3 - -
20/03:00am -7.5 -18.8 -10.8 77 - E 43 56 23 30 980.4 - -
20/02:46am -7.3 -17.4 -10.8 76 - E 37 54 20 29 980.6 - -
20/02:30am -6.5 -15.4 -11.4 68 - ENE 30 52 16 28 980.9 - -
20/02:28am -6.5 -15.0 -11.8 66 - ENE 28 43 15 23 981.0 - -
20/02:00am -6.8 -12.5 -12.3 65 - S 13 20 7 11 981.3 - -
20/01:30am -6.7 -13.5 -12.2 65 - SSE 19 22 10 12 981.4 - -
20/01:00am -5.3 -11.4 -12.7 56 - SSW 15 28 8 15 981.7 982.3 -
20/12:30am -5.5 -12.0 -13.1 55 - WSW 17 26 9 14 982.1 - -
20/12:00am -7.2 -14.4 -9.7 82 - SSW 22 30 12 16 981.9 - -
 
Date/Time
EST
Temp
°C
App
Temp
°C
Dew
Point
°C
Rel
Hum
%
Delta-T
°C
Wind Press
QNH
hPa
Press
MSL
hPa
Rain since
9am
mm
Dir  Spd
km/h
Gust
km/h
Spd
kts
Gust
kts
19/11:30pm -6.7 -15.1 -10.0 77 - SW 28 33 15 18 982.2 - -
19/11:00pm -6.1 -12.5 -11.4 66 - S 17 24 9 13 982.5 - -
19/10:30pm -5.9 -12.7 -11.4 65 - S 19 30 10 16 982.7 - -
19/10:00pm -6.7 -13.9 -9.6 80 - SW 22 37 12 20 983.0 983.6 -
19/09:54pm -6.9 -16.0 -9.6 81 - SW 32 37 17 20 983.0 - -
19/09:30pm -6.9 -12.0 -9.4 82 - SW 11 17 6 9 983.5 - -
19/09:00pm -6.3 -11.1 -10.3 73 - S 9 19 5 10 984.0 - -
19/08:30pm -6.5 -14.1 -9.8 77 - SE 24 35 13 19 984.1 - -
19/08:00pm -6.8 -13.0 -9.3 82 - ESE 17 30 9 16 984.2 - -
19/07:30pm -6.4 -14.8 -10.9 70 - ESE 28 48 15 26 984.0 - -
19/07:28pm -6.4 -15.2 -10.4 73 - ESE 30 48 16 26 983.9 - -
19/07:00pm -6.5 -12.1 -10.7 72 - SSE 13 20 7 11 984.4 984.9 -
19/06:30pm -6.5 -11.3 -11.0 70 - WSW 9 15 5 8 984.8 - -
19/06:00pm -5.9 -12.7 -12.2 61 - E 19 26 10 14 984.9 - -
19/05:30pm -5.9 -11.9 -11.4 65 - N 15 24 8 13 985.3 - -
19/05:00pm -5.8 -12.2 -11.9 62 - ENE 17 24 9 13 985.5 - -
19/04:30pm -6.0 -10.8 -10.0 73 - ENE 9 20 5 11 985.4 - -
19/04:00pm -5.6 -10.4 -10.9 66 - NNE 9 17 5 9 985.5 986.0 -
19/03:30pm -5.8 -10.6 -10.7 68 - NE 9 11 5 6 986.0 - -
19/03:00pm -6.3 -10.6 -9.3 79 - SE 7 13 4 7 986.3 - -
19/02:30pm -6.3 -12.1 -8.1 87 - SSE 15 19 8 10 986.4 - -
19/02:00pm -6.8 -12.0 -10.6 74 - SSE 11 15 6 8 986.6 - -
19/01:30pm -6.1 -11.7 -10.5 71 - ENE 13 17 7 9 986.6 - -
19/01:00pm -5.9 -9.4 -10.8 68 - NE 2 6 1 3 986.9 987.4 -
19/12:30pm -5.9 -10.3 -10.8 68 - E 7 9 4 5 987.0 - -
19/12:00pm -5.7 -12.0 -10.5 69 - E 17 17 9 9 987.2 - -
19/11:30am -5.3 -12.2 -10.4 67 - NE 20 26 11 14 987.5 - -
19/11:00am -5.0 -13.4 -10.9 63 - E 28 32 15 17 987.4 - -
19/10:30am -6.5 -11.2 -9.1 82 - E 9 15 5 8 987.7 - -
19/10:00am -6.3 -12.1 -8.7 83 - NNE 15 20 8 11 987.9 988.4 -
19/09:30am -6.0 -12.8 -9.0 79 - NE 20 28 11 15 988.2 - -
19/09:00am -5.6 -12.2 -9.1 76 - NE 19 26 10 14 988.2 - -
19/08:30am -5.6 -9.9 -8.5 80 - ESE 7 13 4 7 988.6 - -
19/08:00am -6.0 -10.2 -7.4 90 - S 7 11 4 6 988.5 - -
19/07:30am -6.3 -10.9 -7.4 92 - S 9 11 5 6 988.6 - -
19/07:00am -6.2 -10.7 -7.3 92 - S 9 11 5 6 988.6 989.1 -
19/06:30am -5.8 -10.3 -7.2 90 - SE 9 9 5 5 988.8 - -
19/06:00am -5.7 -9.8 -6.8 92 - SSE 7 9 4 5 989.0 - -
19/05:30am -5.7 -9.3 -6.9 91 - SSW 4 7 2 4 989.2 - -
19/05:00am -5.3 -9.4 -6.5 91 - WNW 7 7 4 4 989.1 - -
19/04:30am -5.1 -9.2 -6.6 89 - N 7 11 4 6 989.3 - -
19/04:00am -5.1 -10.4 -7.8 81 - NE 13 15 7 8 989.3 989.8 -
19/03:30am -4.9 -11.0 -7.8 80 - NE 17 20 9 11 989.4 - -
19/03:00am -4.9 -10.9 -7.0 85 - NE 17 20 9 11 989.6 - -
19/02:30am -5.1 -11.1 -6.5 90 - NE 17 19 9 10 989.7 - -
19/02:00am -4.6 -11.0 -6.6 86 - NE 19 24 10 13 989.8 - -
19/01:30am -4.6 -8.6 -5.7 92 - ENE 7 11 4 6 990.0 - -
19/01:00am -4.6 -8.6 -5.7 92 - ENE 7 9 4 5 990.2 990.7 -
19/12:30am -4.6 -8.6 -6.0 90 - SE 7 9 4 5 990.3 - -
19/12:00am -5.1 -9.6 -6.6 89 - S 9 11 5 6 990.2 - -
 
Date/Time
EST
Temp
°C
App
Temp
°C
Dew
Point
°C
Rel
Hum
%
Delta-T
°C
Wind Press
QNH
hPa
Press
MSL
hPa
Rain since
9am
mm
Dir  Spd
km/h
Gust
km/h
Spd
kts
Gust
kts
18/11:30pm -4.5 -9.0 -6.6 85 - SSE 9 13 5 7 990.3 - -
18/11:00pm -4.5 -9.4 -7.1 82 - SSE 11 17 6 9 990.1 - -
18/10:30pm -4.7 -10.8 -7.3 82 - SSE 17 20 9 11 989.8 - -
18/10:00pm -3.3 -9.8 -8.0 70 - ENE 19 20 10 11 989.4 989.9 -
18/09:30pm -3.4 -9.4 -6.7 78 - NE 17 20 9 11 989.6 - -
18/09:00pm -4.0 -9.2 -6.6 82 - NE 13 15 7 8 989.6 - -
18/08:30pm -3.1 -7.0 -6.9 75 - SE 6 11 3 6 989.5 - -
18/08:00pm -3.9 -8.0 -6.4 83 - S 7 11 4 6 989.1 - -
18/07:30pm -4.4 -8.8 -6.1 88 - S 9 15 5 8 988.9 - -
18/07:00pm -4.1 -8.9 -6.1 86 - W 11 17 6 9 988.7 989.2 -
18/06:30pm -4.0 -8.7 -5.2 91 - SSW 11 15 6 8 988.5 - -
18/06:00pm -3.8 -9.6 -5.0 91 - S 17 19 9 10 988.2 - -
18/05:30pm -4.2 -9.7 -5.3 92 - S 15 17 8 9 987.9 - -
18/05:00pm -4.5 -10.8 -5.7 91 - SSE 19 20 10 11 988.0 - -
18/04:30pm -4.6 -10.1 -5.7 92 - S 15 19 8 10 987.8 - -
18/04:00pm -4.6 -10.1 -5.8 91 - S 15 19 8 10 987.6 988.1 -
18/03:30pm -4.7 -11.0 -6.1 90 - SSE 19 20 10 11 987.5 - -
18/03:00pm -5.1 -11.6 -6.3 91 - SSE 20 22 11 12 987.2 - -
18/02:30pm -5.2 -11.2 -6.3 92 - S 17 20 9 11 987.0 - -
18/02:00pm -5.6 -11.6 -6.5 93 - SSE 17 17 9 9 986.7 - -
18/01:30pm -6.0 -11.7 -7.1 92 - S 15 17 8 9 986.7 - -
18/01:00pm -6.1 -11.0 -7.3 91 - S 11 13 6 7 986.5 987.0 -
18/12:30pm -6.1 -10.6 -7.2 92 - SSE 9 11 5 6 986.3 - -
18/12:00pm -6.1 -10.1 -7.5 90 - SSE 6 9 3 5 986.2 - -
18/11:30am -5.6 -8.4 -7.0 90 - CALM 0 0 0 0 985.9 - -
18/11:00am -5.9 -9.9 -7.9 86 - NNE 6 7 3 4 985.6 - -
18/10:30am -5.5 -9.5 -7.5 86 - NNW 6 7 3 4 985.1 - -
18/10:00am -5.6 -10.3 -9.0 77 - NNE 9 11 5 6 984.9 985.4 -
18/09:30am -5.2 -9.8 -8.4 78 - ENE 9 13 5 7 984.5 - -
18/09:00am -5.5 -10.1 -8.1 82 - ESE 9 11 5 6 984.2 - -
18/08:30am -6.6 -12.0 -8.7 85 - ESE 13 15 7 8 984.0 - -
18/08:00am -6.6 -11.7 -9.0 83 - SE 11 13 6 7 983.8 - -
18/07:30am -6.9 -12.3 -8.4 89 - ESE 13 15 7 8 983.5 - -
18/07:00am -7.2 -11.9 -8.7 89 - SE 9 13 5 7 983.2 983.8 -
18/06:30am -7.3 -12.4 -8.8 89 - SSE 11 13 6 7 982.9 - -
18/06:00am -6.8 -11.4 -8.2 90 - S 9 11 5 6 982.8 - -
18/05:30am -7.0 -12.0 -8.4 90 - SE 11 13 6 7 982.8 - -
18/05:00am -7.0 -12.0 -8.5 89 - SSW 11 13 6 7 982.5 - -
18/04:30am -7.2 -12.2 -8.6 90 - S 11 13 6 7 982.5 - -
18/04:00am -7.0 -11.7 -8.6 88 - S 9 11 5 6 982.4 983.0 -
18/03:30am -7.0 -12.8 -8.5 89 - SW 15 17 8 9 982.3 - -
18/03:00am -7.4 -12.5 -9.5 85 - SSW 11 13 6 7 982.3 - -
18/02:30am -7.2 -12.3 -9.4 84 - S 11 13 6 7 982.0 - -
18/02:00am -7.7 -13.2 -10.1 83 - S 13 15 7 8 981.9 - -
18/01:30am -7.5 -13.4 -10.2 81 - S 15 15 8 8 982.0 - -
18/01:00am -7.8 -14.5 -10.5 81 - S 19 20 10 11 981.7 982.3 -
18/12:30am -7.9 -14.2 -10.3 83 - S 17 19 9 10 981.6 - -
18/12:00am -8.0 -13.9 -10.4 83 - S 15 17 8 9 981.4 - -
 
Date/Time
EST
Temp
°C
App
Temp
°C
Dew
Point
°C
Rel
Hum
%
Delta-T
°C
Wind Press
QNH
hPa
Press
MSL
hPa
Rain since
9am
mm
Dir  Spd
km/h
Gust
km/h
Spd
kts
Gust
kts
17/11:30pm -8.1 -14.0 -10.5 83 - S 15 17 8 9 981.0 - -
17/11:00pm -8.0 -13.6 -10.8 80 - S 13 13 7 7 981.0 - -
17/10:30pm -7.9 -13.1 -10.7 80 - S 11 13 6 7 980.8 - -
17/10:00pm -7.8 -12.6 -11.1 77 - S 9 11 5 6 980.7 981.3 -
17/09:30pm -7.3 -10.4 -10.5 78 - CALM 0 6 0 3 980.5 - -
17/09:00pm -7.1 -11.3 -10.4 77 - SSW 6 7 3 4 980.1 - -

Other Formats:

Comma delimited format used in spreadsheet applications
http://www.bom.gov.au/fwo/IDT60803/IDT60803.89611.axf

JavaScript Object Notation format (JSON) in row-major order
http://www.bom.gov.au/fwo/IDT60803/IDT60803.89611.json